sensor_id;sensor_type;location;lat;lon;timestamp;pressure;altitude;pressure_sealevel;temperature
25985;BMP280;66753;53.848;10.658;2023-10-31T00:11:45;99575.47;;;13.03
25985;BMP280;66753;53.848;10.658;2023-10-31T00:26:46;99547.31;;;12.95
25985;BMP280;66753;53.848;10.658;2023-10-31T00:41:48;99535.16;;;13.01
25985;BMP280;66753;53.848;10.658;2023-10-31T00:56:49;99517.69;;;13.00
25985;BMP280;66753;53.848;10.658;2023-10-31T01:11:50;99491.50;;;13.02
25985;BMP280;66753;53.848;10.658;2023-10-31T01:26:51;99481.59;;;13.06
25985;BMP280;66753;53.848;10.658;2023-10-31T01:41:53;99468.31;;;12.99
25985;BMP280;66753;53.848;10.658;2023-10-31T01:56:58;99455.38;;;13.01
25985;BMP280;66753;53.848;10.658;2023-10-31T02:12:00;99434.09;;;13.01
25985;BMP280;66753;53.848;10.658;2023-10-31T02:27:02;99426.91;;;12.98
25985;BMP280;66753;53.848;10.658;2023-10-31T02:42:04;99413.56;;;12.94
25985;BMP280;66753;53.848;10.658;2023-10-31T02:57:06;99381.69;;;12.98
25985;BMP280;66753;53.848;10.658;2023-10-31T03:12:08;99364.56;;;13.06
25985;BMP280;66753;53.848;10.658;2023-10-31T03:27:09;99358.84;;;13.07
25985;BMP280;66753;53.848;10.658;2023-10-31T03:42:11;99344.38;;;13.12
25985;BMP280;66753;53.848;10.658;2023-10-31T03:57:13;99333.00;;;13.15
25985;BMP280;66753;53.848;10.658;2023-10-31T04:12:14;99320.09;;;13.17
25985;BMP280;66753;53.848;10.658;2023-10-31T04:27:16;99309.41;;;13.24
25985;BMP280;66753;53.848;10.658;2023-10-31T04:42:18;99292.66;;;13.30
25985;BMP280;66753;53.848;10.658;2023-10-31T04:57:20;99280.09;;;13.34
25985;BMP280;66753;53.848;10.658;2023-10-31T05:12:23;99272.84;;;13.42
25985;BMP280;66753;53.848;10.658;2023-10-31T05:27:24;99251.53;;;13.45
25985;BMP280;66753;53.848;10.658;2023-10-31T05:42:25;99244.28;;;13.49
25985;BMP280;66753;53.848;10.658;2023-10-31T05:57:27;99249.56;;;13.56
25985;BMP280;66753;53.848;10.658;2023-10-31T06:12:29;99257.22;;;13.54
25985;BMP280;66753;53.848;10.658;2023-10-31T06:27:30;99253.75;;;13.57
25985;BMP280;66753;53.848;10.658;2023-10-31T06:42:32;99259.78;;;13.61
25985;BMP280;66753;53.848;10.658;2023-10-31T06:57:33;99274.63;;;13.66
25985;BMP280;66753;53.848;10.658;2023-10-31T07:12:34;99273.38;;;13.81
25985;BMP280;66753;53.848;10.658;2023-10-31T07:27:36;99276.72;;;13.92
25985;BMP280;66753;53.848;10.658;2023-10-31T07:42:37;99277.81;;;14.01
25985;BMP280;66753;53.848;10.658;2023-10-31T07:57:38;99269.78;;;14.05
25985;BMP280;66753;53.848;10.658;2023-10-31T08:12:40;99255.50;;;14.29
25985;BMP280;66753;53.848;10.658;2023-10-31T08:27:41;99252.34;;;14.41
25985;BMP280;66753;53.848;10.658;2023-10-31T08:42:43;99252.56;;;14.57
25985;BMP280;66753;53.848;10.658;2023-10-31T08:57:44;99276.09;;;14.99
25985;BMP280;66753;53.848;10.658;2023-10-31T09:12:46;99279.66;;;15.22
25985;BMP280;66753;53.848;10.658;2023-10-31T09:27:47;99254.06;;;14.61
25985;BMP280;66753;53.848;10.658;2023-10-31T09:42:49;99279.28;;;14.09
25985;BMP280;66753;53.848;10.658;2023-10-31T09:57:50;99289.38;;;13.74
25985;BMP280;66753;53.848;10.658;2023-10-31T10:12:52;99300.50;;;13.65
25985;BMP280;66753;53.848;10.658;2023-10-31T10:27:53;99356.41;;;13.62
25985;BMP280;66753;53.848;10.658;2023-10-31T10:42:58;99369.41;;;13.46
25985;BMP280;66753;53.848;10.658;2023-10-31T10:58:08;99438.31;;;12.84
25985;BMP280;66753;53.848;10.658;2023-10-31T11:13:37;99507.31;;;11.64
25985;BMP280;66753;53.848;10.658;2023-10-31T11:28:38;99578.31;;;11.30
25985;BMP280;66753;53.848;10.658;2023-10-31T11:58:41;99662.66;;;10.88
25985;BMP280;66753;53.848;10.658;2023-10-31T12:29:15;99746.06;;;10.94
25985;BMP280;66753;53.848;10.658;2023-10-31T12:44:24;99794.78;;;11.12
25985;BMP280;66753;53.848;10.658;2023-10-31T12:59:27;99824.31;;;11.11
25985;BMP280;66753;53.848;10.658;2023-10-31T13:14:29;99852.47;;;11.45
25985;BMP280;66753;53.848;10.658;2023-10-31T13:29:30;99880.03;;;11.37
25985;BMP280;66753;53.848;10.658;2023-10-31T13:44:31;99886.59;;;11.20
25985;BMP280;66753;53.848;10.658;2023-10-31T13:59:33;99926.94;;;11.07
25985;BMP280;66753;53.848;10.658;2023-10-31T14:14:41;99940.66;;;10.90
25985;BMP280;66753;53.848;10.658;2023-10-31T14:29:42;99962.88;;;10.63
25985;BMP280;66753;53.848;10.658;2023-10-31T14:44:44;99995.34;;;10.56
25985;BMP280;66753;53.848;10.658;2023-10-31T14:59:46;100004.47;;;10.21
25985;BMP280;66753;53.848;10.658;2023-10-31T15:14:48;100023.84;;;9.75
25985;BMP280;66753;53.848;10.658;2023-10-31T15:29:49;100069.75;;;9.36
25985;BMP280;66753;53.848;10.658;2023-10-31T15:44:50;100099.34;;;9.14
25985;BMP280;66753;53.848;10.658;2023-10-31T15:59:52;100129.06;;;8.95
25985;BMP280;66753;53.848;10.658;2023-10-31T16:14:53;100160.94;;;8.50
25985;BMP280;66753;53.848;10.658;2023-10-31T16:29:54;100201.94;;;8.12
25985;BMP280;66753;53.848;10.658;2023-10-31T16:44:56;100214.03;;;7.80
25985;BMP280;66753;53.848;10.658;2023-10-31T17:00:06;100233.97;;;7.57
25985;BMP280;66753;53.848;10.658;2023-10-31T17:15:09;100256.09;;;7.15
25985;BMP280;66753;53.848;10.658;2023-10-31T17:30:11;100280.06;;;6.93
25985;BMP280;66753;53.848;10.658;2023-10-31T17:45:13;100325.56;;;6.73
25985;BMP280;66753;53.848;10.658;2023-10-31T18:00:15;100321.44;;;6.47
25985;BMP280;66753;53.848;10.658;2023-10-31T18:15:19;100341.56;;;6.26
25985;BMP280;66753;53.848;10.658;2023-10-31T18:30:21;100376.84;;;6.08
25985;BMP280;66753;53.848;10.658;2023-10-31T18:45:22;100408.09;;;5.92
25985;BMP280;66753;53.848;10.658;2023-10-31T19:00:24;100432.16;;;5.77
25985;BMP280;66753;53.848;10.658;2023-10-31T19:15:25;100458.28;;;5.65
25985;BMP280;66753;53.848;10.658;2023-10-31T19:30:29;100468.72;;;5.48
25985;BMP280;66753;53.848;10.658;2023-10-31T19:45:31;100489.97;;;5.38
25985;BMP280;66753;53.848;10.658;2023-10-31T20:00:32;100481.47;;;5.32
25985;BMP280;66753;53.848;10.658;2023-10-31T20:15:34;100506.81;;;5.37
25985;BMP280;66753;53.848;10.658;2023-10-31T20:30:35;100537.66;;;5.45
25985;BMP280;66753;53.848;10.658;2023-10-31T20:45:37;100548.75;;;5.64
25985;BMP280;66753;53.848;10.658;2023-10-31T21:00:38;100547.88;;;5.77
25985;BMP280;66753;53.848;10.658;2023-10-31T21:15:40;100581.38;;;5.94
25985;BMP280;66753;53.848;10.658;2023-10-31T21:30:41;100574.59;;;6.01
25985;BMP280;66753;53.848;10.658;2023-10-31T21:45:42;100580.50;;;6.07
25985;BMP280;66753;53.848;10.658;2023-10-31T22:00:44;100576.22;;;6.19
25985;BMP280;66753;53.848;10.658;2023-10-31T22:15:46;100558.28;;;6.30
25985;BMP280;66753;53.848;10.658;2023-10-31T22:30:47;100561.16;;;6.11
25985;BMP280;66753;53.848;10.658;2023-10-31T22:45:49;100561.59;;;5.74
25985;BMP280;66753;53.848;10.658;2023-10-31T23:00:50;100553.94;;;5.55
25985;BMP280;66753;53.848;10.658;2023-10-31T23:15:51;100551.50;;;5.37
25985;BMP280;66753;53.848;10.658;2023-10-31T23:30:52;100564.63;;;5.15
25985;BMP280;66753;53.848;10.658;2023-10-31T23:45:54;100569.72;;;4.98
